Time;durP1;ratioP1;P1;durP2;ratioP2;P2;SDS_P1;SDS_P2;PMS_P1;PMS_P2;Temp;Humidity;BMP_temperature;BMP_pressure;BME280_temperature;BME280_humidity;BME280_pressure;Samples;Min_cycle;Max_cycle;Signal;HPM_P1;HPM_P2
2020/12/12 00:02:21;;;;;;;3.47;3.05;;;;;;;15.76;76.60;99997.44;4975965;28;20093;-45
2020/12/12 00:04:47;;;;;;;5.85;3.72;;;;;;;15.72;76.48;99999.88;4975290;28;20045;-46
2020/12/12 00:07:12;;;;;;;11.23;5.22;;;;;;;15.78;76.41;100000.66;4976739;28;20039;-45
2020/12/12 00:09:38;;;;;;;11.25;4.95;;;;;;;15.78;76.14;100023.09;4974439;28;20040;-47
2020/12/12 00:12:04;;;;;;;10.85;5.85;;;;;;;15.65;76.60;100012.94;4976990;28;20038;-45
2020/12/12 00:14:31;;;;;;;8.05;5.35;;;;;;;15.70;76.44;100010.19;4979624;28;20031;-45
2020/12/12 00:16:56;;;;;;;22.92;10.98;;;;;;;15.63;76.36;100012.44;4978327;28;20403;-45
2020/12/12 00:19:22;;;;;;;12.32;7.15;;;;;;;15.71;76.19;100009.09;4972975;28;20046;-47
2020/12/12 00:21:53;;;;;;;6.78;3.70;;;;;;;15.70;76.18;100010.19;4979108;28;20796;-45
2020/12/12 00:24:20;;;;;;;2.10;1.60;;;;;;;15.71;75.56;100019.91;4972378;28;20472;-46
2020/12/12 00:26:45;;;;;;;8.23;2.42;;;;;;;15.70;75.91;100015.59;4985514;28;20046;-47
2020/12/12 00:29:13;;;;;;;2.92;1.90;;;;;;;15.66;75.94;100022.69;4972221;28;20035;-46
2020/12/12 00:31:42;;;;;;;3.08;2.08;;;;;;;15.69;75.63;100032.91;4980767;28;20038;-43
2020/12/12 00:34:08;;;;;;;1.20;0.82;;;;;;;15.62;75.53;100035.13;4971126;28;20077;-46
2020/12/12 00:36:43;;;;;;;3.25;1.65;;;;;;;15.62;75.72;100041.38;4976683;28;20482;-45
2020/12/12 00:39:09;;;;;;;1.58;1.20;;;;;;;15.62;75.29;100024.34;4974112;28;20046;-44
2020/12/12 00:41:39;;;;;;;1.92;0.73;;;;;;;15.69;74.89;100019.41;4972897;28;20141;-44
2020/12/12 00:44:08;;;;;;;1.08;0.75;;;;;;;15.67;74.51;100017.00;4974105;28;20035;-48
2020/12/12 00:46:34;;;;;;;1.25;1.05;;;;;;;15.75;74.07;100028.28;4972655;28;20384;-45
2020/12/12 00:49:00;;;;;;;1.83;0.80;;;;;;;15.75;74.29;100023.66;4980581;28;20129;-43
2020/12/12 00:51:25;;;;;;;4.80;1.60;;;;;;;15.76;73.83;100032.56;4972613;28;20057;-45
2020/12/12 00:53:51;;;;;;;1.08;0.70;;;;;;;15.78;73.89;100035.81;4973698;28;20053;-48
2020/12/12 00:56:17;;;;;;;2.35;1.10;;;;;;;15.63;74.07;100036.75;4976682;28;20042;-47
2020/12/12 00:58:43;;;;;;;1.75;0.68;;;;;;;15.70;74.16;100038.00;4974636;28;20041;-47
2020/12/12 01:01:12;;;;;;;0.90;0.65;;;;;;;15.72;73.82;100042.31;4971617;28;20423;-46
2020/12/12 01:03:40;;;;;;;2.40;1.70;;;;;;;15.67;74.23;100057.53;4974635;28;20042;-45
2020/12/12 01:06:10;;;;;;;3.90;1.63;;;;;;;15.74;74.31;100049.03;4971777;28;20064;-48
2020/12/12 01:08:36;;;;;;;3.25;1.60;;;;;;;15.71;74.21;100055.03;4976391;28;20080;-47
2020/12/12 01:11:02;;;;;;;2.35;1.58;;;;;;;15.68;74.37;100050.22;4977251;28;20475;-47
2020/12/12 01:13:28;;;;;;;4.63;1.80;;;;;;;15.68;74.36;100055.63;4974632;28;20033;-44
2020/12/12 01:15:53;;;;;;;3.55;1.33;;;;;;;15.65;74.24;100067.78;4971786;28;20038;-45
2020/12/12 01:18:19;;;;;;;10.38;3.65;;;;;;;15.62;74.48;100062.16;4973442;28;20122;-44
2020/12/12 01:20:44;;;;;;;6.97;2.22;;;;;;;15.62;74.35;100063.00;4972011;28;20046;-45
2020/12/12 01:23:09;;;;;;;4.78;3.17;;;;;;;15.57;74.47;100070.31;4973262;28;20097;-47
2020/12/12 01:25:37;;;;;;;6.03;0.75;;;;;;;15.54;74.85;100066.31;4972668;28;20040;-43
2020/12/12 01:28:04;;;;;;;4.95;2.25;;;;;;;15.59;74.62;100082.47;4982929;28;20042;-47
2020/12/12 01:30:29;;;;;;;10.10;1.75;;;;;;;15.57;74.73;100075.72;4974387;28;20046;-44
2020/12/12 01:32:55;;;;;;;8.15;1.35;;;;;;;15.44;74.78;100071.84;4979475;28;20709;-44
2020/12/12 01:35:20;;;;;;;9.70;1.58;;;;;;;15.50;74.64;100084.22;4976232;28;20039;-43
2020/12/12 01:37:46;;;;;;;6.88;3.17;;;;;;;15.58;74.38;100080.06;4982544;28;20038;-48
2020/12/12 01:40:12;;;;;;;3.67;1.17;;;;;;;15.60;74.19;100088.66;4978827;28;20113;-47
2020/12/12 01:42:38;;;;;;;3.03;1.75;;;;;;;15.57;74.57;100086.53;4977238;28;20047;-50
2020/12/12 01:45:05;;;;;;;10.18;2.13;;;;;;;15.51;74.58;100099.31;4975106;28;20042;-48
2020/12/12 01:47:32;;;;;;;12.13;2.63;;;;;;;15.56;73.79;100079.53;4977840;28;20109;-47
2020/12/12 01:49:57;;;;;;;2.30;1.30;;;;;;;15.50;73.91;100087.72;4974936;28;20459;-49
2020/12/12 01:52:24;;;;;;;11.18;2.35;;;;;;;15.41;73.26;100084.03;4977793;28;20133;-48
2020/12/12 01:54:50;;;;;;;9.32;2.03;;;;;;;15.54;71.97;100087.94;4982218;28;20093;-46
2020/12/12 01:57:21;;;;;;;14.88;2.60;;;;;;;15.64;71.55;100081.63;4989361;28;20039;-44
2020/12/12 01:59:48;;;;;;;5.90;2.63;;;;;;;15.64;71.30;100092.44;4989343;28;20489;-49
2020/12/12 02:02:18;;;;;;;19.27;3.55;;;;;;;15.46;70.43;100083.97;4978800;28;20071;-47
2020/12/12 02:04:54;;;;;;;9.52;3.30;;;;;;;15.50;69.89;100081.50;4988911;28;20050;-49
2020/12/12 02:07:22;;;;;;;4.60;1.88;;;;;;;15.38;70.76;100094.63;4977520;28;20038;-46
2020/12/12 02:09:48;;;;;;;15.40;1.23;;;;;;;15.34;68.18;100097.09;4975313;28;20376;-47
2020/12/12 02:12:15;;;;;;;13.82;2.22;;;;;;;15.44;68.96;100094.25;4976760;28;20069;-44
2020/12/12 02:14:41;;;;;;;4.40;1.58;;;;;;;15.59;69.04;100116.81;4975979;28;20034;-46
2020/12/12 02:17:08;;;;;;;9.48;1.75;;;;;;;15.62;69.17;100111.63;4983249;28;20491;-47
2020/12/12 02:19:35;;;;;;;12.32;2.78;;;;;;;15.63;69.30;100112.41;4975761;28;20097;-45
2020/12/12 02:22:02;;;;;;;12.80;3.60;;;;;;;15.64;69.43;100101.31;4976299;28;20212;-45
2020/12/12 02:24:29;;;;;;;9.20;2.42;;;;;;;15.65;70.01;100112.94;4975765;28;20042;-44
2020/12/12 02:26:59;;;;;;;3.97;1.58;;;;;;;15.34;69.78;100118.69;4982072;28;20035;-46
2020/12/12 02:29:40;;;;;;;10.38;4.30;;;;;;;15.43;69.66;100129.69;4975474;28;20395;-47
2020/12/12 02:32:06;;;;;;;3.83;1.33;;;;;;;15.60;69.24;100126.50;4975895;28;20042;-44
2020/12/12 02:34:32;;;;;;;12.05;2.97;;;;;;;15.55;68.66;100113.03;4975354;28;20129;-46
2020/12/12 02:36:57;;;;;;;10.90;1.75;;;;;;;15.46;69.26;100113.69;4983633;28;20177;-48
2020/12/12 02:39:23;;;;;;;8.50;2.28;;;;;;;15.54;68.80;100128.47;4975823;28;20039;-47
2020/12/12 02:41:48;;;;;;;4.32;2.40;;;;;;;15.56;68.76;100128.19;4977222;28;20041;-47
2020/12/12 02:44:13;;;;;;;14.55;4.10;;;;;;;15.43;69.04;100130.47;4976010;28;20527;-46
2020/12/12 02:46:39;;;;;;;30.45;4.50;;;;;;;15.40;69.02;100141.03;4982221;28;20892;-49
2020/12/12 02:49:04;;;;;;;14.82;2.30;;;;;;;15.37;69.00;100131.59;4975610;28;20054;-45
2020/12/12 02:51:30;;;;;;;4.57;1.23;;;;;;;15.44;68.12;100136.66;4975321;28;20038;-43
2020/12/12 02:53:55;;;;;;;4.40;2.72;;;;;;;15.49;68.08;100153.63;4980254;28;20042;-46
2020/12/12 02:56:21;;;;;;;4.63;1.48;;;;;;;15.42;68.97;100139.66;4987454;28;20038;-48
2020/12/12 02:58:46;;;;;;;5.70;2.47;;;;;;;15.47;67.51;100153.09;4984326;28;20058;-46
2020/12/12 03:01:12;;;;;;;8.07;2.13;;;;;;;15.55;67.84;100165.22;4979954;28;20065;-47
2020/12/12 03:03:38;;;;;;;10.63;2.83;;;;;;;15.50;67.82;100154.44;4977585;28;20145;-46
2020/12/12 03:06:03;;;;;;;8.27;3.03;;;;;;;15.56;67.77;100155.19;4973948;28;20162;-46
2020/12/12 03:08:29;;;;;;;5.60;2.30;;;;;;;15.56;67.43;100153.28;4976435;28;20030;-44
2020/12/12 03:10:54;;;;;;;5.32;3.20;;;;;;;15.56;67.90;100144.38;4973385;28;20129;-49
2020/12/12 03:13:20;;;;;;;7.68;2.55;;;;;;;15.51;67.74;100139.84;4983944;28;20634;-47
2020/12/12 03:15:46;;;;;;;10.73;1.85;;;;;;;15.56;67.76;100145.19;4974577;28;20531;-43
2020/12/12 03:18:12;;;;;;;4.43;1.98;;;;;;;15.32;67.32;100123.56;4974331;28;20049;-46
2020/12/12 03:20:38;;;;;;;2.80;0.75;;;;;;;15.33;67.59;100111.66;4975635;28;20399;-46
2020/12/12 03:23:03;;;;;;;26.02;4.13;;;;;;;15.31;67.35;100130.84;4973445;28;20046;-46
2020/12/12 03:25:29;;;;;;;7.60;2.28;;;;;;;15.43;67.74;100129.69;4976225;28;20530;-46
2020/12/12 03:27:54;;;;;;;4.95;3.13;;;;;;;15.45;67.11;100130.97;4978980;28;20110;-46
2020/12/12 03:30:20;;;;;;;5.97;1.70;;;;;;;15.59;66.47;100141.13;4975205;28;20038;-46
2020/12/12 03:32:45;;;;;;;6.50;3.17;;;;;;;15.57;66.66;100146.81;4974166;28;20035;-46
2020/12/12 03:35:11;;;;;;;4.68;0.98;;;;;;;15.55;66.94;100167.91;4974970;28;20034;-47
2020/12/12 03:37:36;;;;;;;14.73;2.63;;;;;;;15.52;66.49;100167.69;4974437;28;20042;-46
2020/12/12 03:40:04;;;;;;;9.68;4.07;;;;;;;15.44;66.77;100160.97;4975090;28;20125;-45
2020/12/12 03:42:29;;;;;;;6.95;2.42;;;;;;;15.53;66.71;100161.97;4974186;28;20043;-42
2020/12/12 03:44:55;;;;;;;13.10;2.75;;;;;;;15.58;66.34;100158.41;4974795;28;20084;-45
2020/12/12 03:47:20;;;;;;;7.13;1.67;;;;;;;15.57;66.40;100171.13;4979853;28;20399;-46
2020/12/12 03:49:46;;;;;;;7.18;1.48;;;;;;;15.60;65.80;100172.44;4981933;28;20763;-44
2020/12/12 03:52:12;;;;;;;4.13;2.55;;;;;;;15.29;65.12;100168.16;4982336;28;20042;-49
2020/12/12 03:54:37;;;;;;;12.48;3.65;;;;;;;15.26;64.90;100181.41;4979344;28;20047;-48
2020/12/12 03:57:04;;;;;;;11.95;2.58;;;;;;;15.23;62.44;100165.78;4973039;28;20035;-45
2020/12/12 03:59:29;;;;;;;6.57;2.00;;;;;;;15.22;62.75;100167.69;4980432;28;20038;-45
2020/12/12 04:01:55;;;;;;;5.00;2.08;;;;;;;15.24;63.53;100175.50;4979726;28;20039;-44
2020/12/12 04:04:21;;;;;;;1.67;0.95;;;;;;;15.23;62.15;100158.47;4974741;28;20149;-46
2020/12/12 04:06:47;;;;;;;12.73;2.78;;;;;;;15.25;65.57;100158.19;4973406;28;20149;-43
2020/12/12 04:09:12;;;;;;;4.35;1.55;;;;;;;15.26;61.93;100160.63;4974145;28;20050;-48
2020/12/12 04:11:38;;;;;;;6.72;1.60;;;;;;;15.22;62.25;100158.78;4973512;28;20042;-44
2020/12/12 04:14:03;;;;;;;4.50;1.50;;;;;;;15.22;61.95;100151.47;4973988;28;20069;-44
2020/12/12 04:16:29;;;;;;;2.88;0.85;;;;;;;15.13;65.42;100145.09;4973312;28;20077;-45
2020/12/12 04:18:55;;;;;;;4.10;1.35;;;;;;;15.13;63.06;100154.00;4973997;28;20533;-47
2020/12/12 04:21:21;;;;;;;5.15;1.85;;;;;;;15.08;63.21;100159.44;4972846;28;20047;-44
2020/12/12 04:23:46;;;;;;;11.55;2.50;;;;;;;15.21;60.59;100167.97;4974464;28;20459;-44
2020/12/12 04:26:12;;;;;;;5.03;1.77;;;;;;;15.30;60.55;100163.53;4972193;28;20038;-48
2020/12/12 04:28:40;;;;;;;14.10;2.65;;;;;;;15.37;61.36;100165.91;4974778;28;20053;-44
2020/12/12 04:31:06;;;;;;;12.32;2.67;;;;;;;15.20;62.74;100155.53;4972020;28;20041;-44
2020/12/12 04:33:32;;;;;;;4.53;2.03;;;;;;;15.12;59.66;100165.06;4974963;28;20113;-47
2020/12/12 04:35:58;;;;;;;3.28;1.65;;;;;;;15.22;60.67;100156.09;4972101;28;20043;-43
2020/12/12 04:38:23;;;;;;;10.98;1.83;;;;;;;15.22;61.34;100148.78;4974379;28;20044;-43
2020/12/12 04:40:49;;;;;;;13.93;2.80;;;;;;;15.35;60.23;100133.78;4971083;28;20530;-47
2020/12/12 04:43:15;;;;;;;8.13;2.78;;;;;;;15.40;60.54;100111.34;4973219;28;20419;-45
2020/12/12 04:45:43;;;;;;;7.50;2.15;;;;;;;15.39;60.26;100120.50;4973661;28;20042;-48
2020/12/12 04:48:09;;;;;;;2.72;1.08;;;;;;;15.11;62.11;100131.03;4972422;28;20039;-47
2020/12/12 04:50:35;;;;;;;3.28;1.15;;;;;;;14.89;64.88;100131.53;4973678;28;20051;-45
2020/12/12 04:53:18;;;;;;;9.57;3.08;;;;;;;14.96;59.02;100144.69;4971562;28;20380;-46
2020/12/12 04:55:52;;;;;;;4.63;2.17;;;;;;;14.92;63.15;100157.97;4985577;28;20085;-46
2020/12/12 04:58:20;;;;;;;11.65;2.70;;;;;;;14.97;57.24;100189.47;4985954;28;20034;-43
2020/12/12 05:00:49;;;;;;;8.98;1.35;;;;;;;14.90;57.41;100193.31;4985370;28;20030;-47
2020/12/12 05:03:16;;;;;;;8.80;2.85;;;;;;;14.95;58.26;100187.06;4985921;28;20034;-43
2020/12/12 05:05:43;;;;;;;2.05;0.77;;;;;;;15.03;58.61;100180.28;4986198;28;20035;-46
2020/12/12 05:08:09;;;;;;;5.78;2.42;;;;;;;15.03;58.89;100164.88;4985287;28;20053;-43
2020/12/12 05:10:39;;;;;;;7.38;3.25;;;;;;;15.13;58.62;100164.00;4973729;28;20043;-44
2020/12/12 05:13:24;;;;;;;5.47;2.38;;;;;;;15.20;59.10;100148.25;4971343;28;20041;-45
2020/12/12 05:15:54;;;;;;;9.82;2.85;;;;;;;15.07;60.53;100152.41;4984873;28;20045;-47
2020/12/12 05:18:20;;;;;;;8.90;3.47;;;;;;;15.09;60.53;100135.94;4972941;28;20789;-48
2020/12/12 05:20:45;;;;;;;11.05;1.88;;;;;;;15.06;60.76;100148.13;4972725;28;20049;-45
2020/12/12 05:23:23;;;;;;;5.57;3.30;;;;;;;15.01;61.39;100148.16;4972325;28;20043;-45
2020/12/12 05:25:49;;;;;;;4.78;1.88;;;;;;;15.09;60.60;100158.34;4985875;28;20046;-46
2020/12/12 05:28:17;;;;;;;4.53;0.82;;;;;;;15.02;59.71;100162.44;4985906;28;20065;-44
2020/12/12 05:30:44;;;;;;;8.65;0.85;;;;;;;15.00;59.61;100168.13;4972910;28;20521;-44
2020/12/12 05:33:16;;;;;;;5.90;1.20;;;;;;;14.97;60.43;100162.50;4971798;28;20035;-44
2020/12/12 05:35:42;;;;;;;2.75;1.55;;;;;;;15.10;59.73;100161.84;4973989;28;20046;-44
2020/12/12 05:38:09;;;;;;;4.85;0.88;;;;;;;14.88;64.04;100165.00;4983196;28;20518;-43
2020/12/12 05:40:36;;;;;;;4.25;1.65;;;;;;;15.17;59.84;100177.72;4973086;28;20026;-43
2020/12/12 05:43:04;;;;;;;4.15;1.70;;;;;;;15.07;61.71;100175.91;4973658;28;20415;-45
2020/12/12 05:45:29;;;;;;;1.90;0.85;;;;;;;15.04;62.50;100196.19;4974155;28;20042;-46
2020/12/12 05:47:55;;;;;;;2.53;0.75;;;;;;;14.90;62.14;100185.22;4979332;28;20041;-44
2020/12/12 05:50:20;;;;;;;4.90;2.75;;;;;;;15.00;58.89;100197.81;4976762;28;20126;-43
2020/12/12 05:52:52;;;;;;;16.58;3.58;;;;;;;15.03;61.35;100194.56;4973616;28;20038;-48
2020/12/12 05:55:17;;;;;;;3.05;2.35;;;;;;;15.02;61.63;100197.53;4980427;28;20042;-47
2020/12/12 05:57:44;;;;;;;2.83;2.30;;;;;;;15.04;61.50;100204.28;4983162;28;20050;-44
2020/12/12 06:00:09;;;;;;;1.75;0.82;;;;;;;15.05;62.36;100218.59;4985345;28;20034;-44
2020/12/12 06:02:36;;;;;;;6.05;1.77;;;;;;;14.99;61.10;100217.81;4975519;28;20089;-44
2020/12/12 06:05:06;;;;;;;5.65;1.85;;;;;;;15.06;60.78;100223.72;4984648;28;20034;-45
2020/12/12 06:07:33;;;;;;;4.18;1.48;;;;;;;15.00;63.58;100224.03;4987599;28;20121;-44
2020/12/12 06:10:06;;;;;;;8.20;2.22;;;;;;;15.05;60.03;100229.38;4989058;28;20066;-45
2020/12/12 06:12:32;;;;;;;6.88;2.25;;;;;;;14.98;61.78;100221.59;4987369;28;20034;-44
2020/12/12 06:14:59;;;;;;;7.38;0.93;;;;;;;14.92;60.60;100230.84;4990380;28;20402;-44
2020/12/12 06:17:49;;;;;;;6.90;1.80;;;;;;;14.99;61.78;100217.81;4977681;28;20122;-48
2020/12/12 06:20:16;;;;;;;21.13;3.83;;;;;;;15.09;61.15;100223.16;4990051;28;20389;-45
2020/12/12 06:22:43;;;;;;;17.40;2.72;;;;;;;15.05;61.34;100221.28;4991325;28;20026;-43
2020/12/12 06:25:20;;;;;;;4.40;2.30;;;;;;;14.96;62.48;100231.88;4992311;28;20046;-45
2020/12/12 06:27:53;;;;;;;5.50;1.67;;;;;;;14.95;59.63;100224.84;4992628;28;20037;-44
2020/12/12 06:30:21;;;;;;;11.65;2.53;;;;;;;14.93;62.88;100227.84;4992093;28;20074;-46
2020/12/12 06:32:47;;;;;;;5.90;2.20;;;;;;;14.98;60.50;100229.69;4993616;28;20033;-43
2020/12/12 06:35:16;;;;;;;14.45;3.33;;;;;;;15.02;61.85;100238.84;4992358;28;20026;-45
2020/12/12 06:37:41;;;;;;;9.57;2.97;;;;;;;14.97;62.29;100247.00;4978816;28;20038;-44
2020/12/12 06:40:10;;;;;;;9.43;2.15;;;;;;;15.02;60.08;100243.44;4977387;28;20039;-43
2020/12/12 06:42:41;;;;;;;5.85;2.55;;;;;;;14.93;61.15;100249.41;4978431;28;20101;-44
2020/12/12 06:45:16;;;;;;;3.90;1.10;;;;;;;14.99;62.41;100258.31;4977144;28;20746;-43
2020/12/12 06:47:46;;;;;;;19.20;3.90;;;;;;;15.00;61.87;100262.63;4984181;28;20503;-44
2020/12/12 06:50:22;;;;;;;9.15;2.58;;;;;;;15.02;62.90;100268.53;4976973;28;20046;-45
2020/12/12 06:52:52;;;;;;;11.73;2.75;;;;;;;15.02;60.28;100267.72;4991054;28;20129;-46
2020/12/12 06:55:22;;;;;;;8.48;2.35;;;;;;;15.17;59.26;100264.13;4992105;28;20042;-44
2020/12/12 06:57:55;;;;;;;10.25;2.72;;;;;;;15.11;59.41;100250.66;4991895;28;20130;-47
2020/12/12 07:00:34;;;;;;;11.80;3.05;;;;;;;15.10;59.71;100256.34;4993018;28;20117;-46
2020/12/12 07:03:04;;;;;;;5.47;1.58;;;;;;;15.07;60.06;100252.31;4981520;28;20034;-45
2020/12/12 07:05:32;;;;;;;11.55;3.50;;;;;;;15.20;59.51;100250.03;4986220;28;20489;-47
2020/12/12 07:08:18;;;;;;;8.95;2.75;;;;;;;15.21;59.45;100251.66;4991607;28;20070;-47
2020/12/12 07:10:44;;;;;;;4.60;2.28;;;;;;;15.04;60.13;100258.28;4990602;28;20063;-43
2020/12/12 07:13:12;;;;;;;3.53;2.15;;;;;;;15.01;61.48;100244.53;4992758;28;20136;-44
2020/12/12 07:15:37;;;;;;;16.55;3.85;;;;;;;15.19;59.52;100251.16;4990824;28;20387;-43
2020/12/12 07:18:11;;;;;;;15.60;4.55;;;;;;;15.26;59.65;100248.94;4991243;28;20034;-47
2020/12/12 07:20:43;;;;;;;33.47;7.18;;;;;;;15.22;59.33;100253.28;4985866;28;20046;-43
2020/12/12 07:23:09;;;;;;;8.23;3.10;;;;;;;15.09;60.35;100252.84;4976574;28;20049;-43
2020/12/12 07:25:35;;;;;;;10.88;3.67;;;;;;;15.22;60.35;100264.09;4985171;28;20494;-43
2020/12/12 07:28:02;;;;;;;12.10;2.42;;;;;;;15.16;60.46;100260.59;4982987;28;20423;-46
2020/12/12 07:30:27;;;;;;;8.45;3.42;;;;;;;15.09;60.32;100263.66;4983758;28;20436;-44
2020/12/12 07:32:53;;;;;;;7.80;1.88;;;;;;;15.10;60.11;100275.25;4976541;28;20089;-43
2020/12/12 07:35:19;;;;;;;16.30;3.65;;;;;;;15.04;61.47;100279.88;4976854;28;20031;-45
2020/12/12 07:37:44;;;;;;;19.10;3.58;;;;;;;14.98;61.33;100282.88;4984313;28;20114;-43
2020/12/12 07:40:10;;;;;;;10.95;2.00;;;;;;;14.94;61.15;100291.53;4986461;28;20034;-47
2020/12/12 07:42:36;;;;;;;6.47;1.40;;;;;;;14.88;61.79;100297.25;4977282;28;20085;-47
2020/12/12 07:47:49;;;;;;;9.73;2.60;;;;;;;14.94;61.08;100298.84;4990621;28;20109;-43
2020/12/12 07:50:15;;;;;;;15.18;2.83;;;;;;;15.03;60.11;100299.84;4990632;28;20488;-46
2020/12/12 07:52:41;;;;;;;6.40;1.65;;;;;;;15.00;62.76;100294.22;4990297;28;20043;-47
2020/12/12 07:55:09;;;;;;;12.20;3.40;;;;;;;15.04;61.79;100300.66;4981246;28;20378;-46
2020/12/12 07:57:38;;;;;;;2.03;1.40;;;;;;;14.99;62.67;100297.97;4977032;28;20038;-45
2020/12/12 08:00:11;;;;;;;20.27;4.90;;;;;;;15.08;61.30;100299.81;4975764;28;20026;-44
2020/12/12 08:02:37;;;;;;;6.07;3.13;;;;;;;15.13;61.90;100301.69;4989546;28;20110;-47
2020/12/12 08:05:05;;;;;;;4.50;2.97;;;;;;;15.12;61.30;100308.16;4990458;28;20109;-43
2020/12/12 08:07:32;;;;;;;7.50;1.85;;;;;;;15.12;61.04;100314.38;4989782;28;20105;-47
2020/12/12 08:09:58;;;;;;;3.97;1.15;;;;;;;15.10;61.73;100343.53;4982400;28;20106;-43
2020/12/12 08:12:28;;;;;;;13.95;2.85;;;;;;;15.15;61.01;100333.78;4978530;28;20483;-44
2020/12/12 08:14:55;;;;;;;4.80;1.35;;;;;;;15.10;62.13;100327.34;4985933;28;20125;-43
2020/12/12 08:17:25;;;;;;;9.88;2.47;;;;;;;15.15;61.63;100334.63;4988882;28;20066;-45
2020/12/12 08:19:51;;;;;;;10.40;3.10;;;;;;;15.20;60.95;100331.91;4991311;28;20035;-43
2020/12/12 08:22:20;;;;;;;9.65;1.80;;;;;;;15.18;61.54;100335.94;4979260;28;20372;-43
2020/12/12 08:24:46;;;;;;;4.30;1.60;;;;;;;15.24;61.09;100332.13;4989248;28;20075;-45
2020/12/12 08:27:14;;;;;;;7.07;4.10;;;;;;;15.23;61.44;100330.50;4989768;28;20070;-45
2020/12/12 08:29:57;;;;;;;12.05;4.22;;;;;;;15.27;61.78;100329.69;4977193;28;20038;-45
2020/12/12 08:32:42;;;;;;;15.20;6.68;;;;;;;15.28;61.77;100333.19;4976185;28;20459;-42
2020/12/12 08:35:11;;;;;;;11.02;3.13;;;;;;;15.40;61.41;100330.94;4975423;28;20027;-46
2020/12/12 08:37:36;;;;;;;9.23;4.00;;;;;;;15.36;61.69;100334.47;4976766;28;20124;-48
2020/12/12 08:40:12;;;;;;;3.35;1.25;;;;;;;15.30;61.82;100331.00;4975902;28;20467;-43
2020/12/12 08:42:37;;;;;;;7.65;3.90;;;;;;;15.27;61.38;100343.19;4976639;28;20031;-44
2020/12/12 08:45:13;;;;;;;11.93;3.00;;;;;;;15.28;61.45;100330.47;4975304;28;20035;-42
2020/12/12 08:47:38;;;;;;;5.78;1.85;;;;;;;15.28;61.93;100343.97;4976761;28;20035;-44
2020/12/12 08:50:03;;;;;;;4.88;1.48;;;;;;;15.29;61.19;100345.59;4978960;28;20041;-42
2020/12/12 08:52:29;;;;;;;9.07;4.32;;;;;;;15.44;61.01;100350.88;4990008;28;20038;-43
2020/12/12 08:55:01;;;;;;;7.93;3.45;;;;;;;15.50;60.86;100357.88;4989996;28;20038;-44
2020/12/12 08:57:27;;;;;;;5.55;2.65;;;;;;;15.52;60.80;100357.59;4989033;28;20046;-45
2020/12/12 09:00:04;;;;;;;4.65;2.78;;;;;;;15.30;61.82;100368.81;4984250;28;20034;-44
2020/12/12 09:02:30;;;;;;;10.15;2.58;;;;;;;15.28;60.81;100365.59;4991630;28;20112;-42
2020/12/12 09:05:12;;;;;;;6.20;1.08;;;;;;;15.36;59.42;100361.47;4981496;28;20419;-45
2020/12/12 09:07:37;;;;;;;;;;;;;;;15.47;59.08;100368.44;4976644;28;20042;-46
2020/12/12 09:10:12;;;;;;;12.73;2.80;;;;;;;15.52;59.38;100354.09;4975041;28;19921;-44
2020/12/12 09:12:45;;;;;;;10.50;2.97;;;;;;;15.52;59.07;100359.50;4975867;28;20035;-44
2020/12/12 09:15:11;;;;;;;12.95;5.13;;;;;;;15.47;59.58;100368.44;4975106;28;20049;-42
2020/12/12 09:17:36;;;;;;;6.00;2.38;;;;;;;15.31;59.26;100367.75;4976162;28;20376;-43
2020/12/12 09:20:03;;;;;;;5.70;2.08;;;;;;;15.25;56.33;100372.38;4975110;28;20046;-45
2020/12/12 09:22:28;;;;;;;6.28;3.38;;;;;;;15.31;55.98;100362.34;4976019;28;20053;-43
2020/12/12 09:24:54;;;;;;;13.02;2.42;;;;;;;15.19;60.31;100380.78;4974738;28;20035;-43
2020/12/12 09:27:21;;;;;;;12.10;4.90;;;;;;;15.22;57.34;100372.13;4981469;28;20049;-44
2020/12/12 09:29:47;;;;;;;8.25;2.58;;;;;;;15.31;56.45;100370.44;4983963;28;20130;-45
2020/12/12 09:32:13;;;;;;;10.52;4.47;;;;;;;15.37;56.37;100384.72;4974607;28;20041;-42
2020/12/12 09:34:39;;;;;;;2.90;0.73;;;;;;;15.28;59.59;100377.19;4982229;28;20042;-44
2020/12/12 09:37:05;;;;;;;20.55;4.55;;;;;;;15.31;56.08;100381.25;4986703;28;20049;-43
2020/12/12 09:39:30;;;;;;;7.07;2.30;;;;;;;15.28;56.36;100387.19;4988613;28;20030;-42
2020/12/12 09:42:00;;;;;;;17.98;6.43;;;;;;;15.42;56.77;100390.09;4986634;28;20046;-46
2020/12/12 09:44:29;;;;;;;5.15;2.97;;;;;;;15.31;57.63;100382.03;4975711;28;20042;-45
2020/12/12 09:46:55;;;;;;;7.55;2.67;;;;;;;15.31;58.01;100383.94;4981134;28;20039;-42
2020/12/12 09:49:20;;;;;;;6.05;3.88;;;;;;;15.36;58.18;100377.69;4975312;28;20061;-43
2020/12/12 09:51:47;;;;;;;21.52;5.53;;;;;;;15.33;59.65;100384.47;4974497;28;20034;-43
2020/12/12 09:54:13;;;;;;;7.95;3.95;;;;;;;15.31;58.85;100381.25;4987500;28;20180;-42
2020/12/12 09:56:39;;;;;;;13.45;5.13;;;;;;;15.45;58.87;100373.31;4990174;28;20049;-45
2020/12/12 09:59:05;;;;;;;8.50;2.60;;;;;;;15.48;59.63;100383.56;4991512;28;20042;-44
2020/12/12 10:01:30;;;;;;;11.90;2.45;;;;;;;15.37;59.43;100369.31;4991006;28;20038;-42
2020/12/12 10:03:56;;;;;;;12.77;1.80;;;;;;;15.30;61.86;100379.63;4992413;28;20427;-42
2020/12/12 10:06:22;;;;;;;14.15;3.80;;;;;;;15.44;59.58;100391.41;4991083;28;20057;-43
2020/12/12 10:08:47;;;;;;;6.88;2.47;;;;;;;15.42;60.25;100399.00;4987790;28;20026;-44
2020/12/12 10:11:13;;;;;;;14.43;4.60;;;;;;;15.43;59.33;100403.31;4994347;28;20128;-42
2020/12/12 10:13:38;;;;;;;5.47;2.05;;;;;;;15.33;58.41;100406.06;4986811;28;20132;-46
2020/12/12 10:16:04;;;;;;;13.63;2.80;;;;;;;15.27;57.85;100402.59;4978334;28;20440;-43
2020/12/12 10:18:29;;;;;;;8.55;1.88;;;;;;;15.29;55.30;100408.53;4979093;28;20038;-42
2020/12/12 10:20:55;;;;;;;3.13;1.25;;;;;;;15.25;56.60;100410.19;4977984;28;20126;-42
2020/12/12 10:23:20;;;;;;;5.15;1.73;;;;;;;15.22;57.79;100405.31;4978366;28;20038;-41
2020/12/12 10:25:46;;;;;;;5.60;2.17;;;;;;;15.23;58.23;100411.53;4978690;28;20391;-43
2020/12/12 10:28:12;;;;;;;7.10;1.73;;;;;;;15.34;54.79;100407.69;4978074;28;20129;-46
2020/12/12 10:30:37;;;;;;;9.27;3.15;;;;;;;15.28;57.16;100403.41;4979260;28;20031;-45
2020/12/12 10:33:03;;;;;;;9.20;2.80;;;;;;;15.36;55.76;100408.22;4977726;28;20066;-42
2020/12/12 10:35:30;;;;;;;7.03;1.60;;;;;;;15.26;55.71;100425.28;4979157;28;20031;-44
2020/12/12 10:37:56;;;;;;;4.88;1.77;;;;;;;15.30;54.23;100420.13;4978023;28;20035;-43
2020/12/12 10:40:47;;;;;;;10.32;4.82;;;;;;;15.30;54.42;100412.84;4978186;28;20106;-43
2020/12/12 10:43:13;;;;;;;3.25;1.48;;;;;;;15.41;54.09;100428.97;4983367;28;20034;-46
2020/12/12 10:45:40;;;;;;;22.75;5.35;;;;;;;15.34;54.41;100406.88;4991736;28;20053;-42
2020/12/12 10:48:05;;;;;;;7.82;3.25;;;;;;;15.32;54.19;100409.84;4992360;28;20038;-46
2020/12/12 10:50:31;;;;;;;1.33;0.85;;;;;;;15.31;54.16;100416.34;4991786;28;20053;-43
2020/12/12 10:52:56;;;;;;;11.35;2.05;;;;;;;15.32;55.27;100420.66;4991204;28;20042;-43
2020/12/12 10:55:22;;;;;;;15.27;3.75;;;;;;;15.34;54.39;100418.50;4981913;28;20495;-44
2020/12/12 10:57:47;;;;;;;6.15;2.03;;;;;;;15.38;54.14;100413.34;4986914;28;20042;-45
2020/12/12 11:00:22;;;;;;;13.43;2.60;;;;;;;15.38;54.98;100429.56;4990404;28;20026;-44
2020/12/12 11:02:50;;;;;;;9.52;2.72;;;;;;;15.39;54.99;100420.34;4991966;28;20038;-42
2020/12/12 11:05:16;;;;;;;6.82;3.30;;;;;;;15.34;55.92;100412.28;4989345;28;20070;-43
2020/12/12 11:07:41;;;;;;;7.32;2.30;;;;;;;15.35;55.21;100406.59;4992317;28;20463;-44
2020/12/12 11:10:07;;;;;;;12.25;1.30;;;;;;;15.24;60.81;100418.56;4982980;28;20027;-42
2020/12/12 11:12:32;;;;;;;7.43;2.13;;;;;;;15.27;56.38;100404.47;4982770;28;20117;-42
2020/12/12 11:14:58;;;;;;;10.98;1.75;;;;;;;15.24;56.63;100405.84;4983478;28;20539;-44
2020/12/12 11:17:24;;;;;;;9.38;2.90;;;;;;;15.32;55.31;100394.47;4985272;28;20034;-43
2020/12/12 11:19:50;;;;;;;5.50;1.30;;;;;;;15.30;55.70;100402.06;4985630;28;20031;-47
2020/12/12 11:22:15;;;;;;;3.92;2.33;;;;;;;15.30;56.37;100398.53;4985532;28;20370;-47
2020/12/12 11:24:41;;;;;;;3.25;1.70;;;;;;;15.27;56.05;100410.72;4979589;28;20140;-46
2020/12/12 11:27:06;;;;;;;6.95;1.92;;;;;;;15.31;55.34;100419.06;4982504;28;20085;-44